createdAt,value
2018-01-21T00:01:06.702Z,1.70
2018-01-21T00:03:34.178Z,1.70
2018-01-21T00:06:01.653Z,1.80
2018-01-21T00:08:29.893Z,1.80
2018-01-21T00:10:57.365Z,1.80
2018-01-21T00:13:26.045Z,1.80
2018-01-21T00:15:54.955Z,1.80
2018-01-21T00:18:23.623Z,1.80
2018-01-21T00:20:51.105Z,1.80
2018-01-21T00:23:18.589Z,1.80
2018-01-21T00:25:46.075Z,1.80
2018-01-21T00:28:13.565Z,1.80
2018-01-21T00:30:41.037Z,1.80
2018-01-21T00:33:08.658Z,1.80
2018-01-21T00:35:36.129Z,1.80
2018-01-21T00:38:03.633Z,1.80
2018-01-21T00:40:31.869Z,1.80
2018-01-21T00:42:59.355Z,1.80
2018-01-21T00:45:27.592Z,1.80
2018-01-21T00:47:55.063Z,1.80
2018-01-21T00:50:22.518Z,1.90
2018-01-21T00:52:50.064Z,1.90
2018-01-21T00:55:17.552Z,1.80
2018-01-21T00:57:45.020Z,1.90
2018-01-21T01:00:13.254Z,1.90
2018-01-21T01:02:40.758Z,1.90
2018-01-21T01:05:09.022Z,1.90
2018-01-21T01:07:36.498Z,1.90
2018-01-21T01:10:04.733Z,1.90
2018-01-21T01:12:32.222Z,1.90
2018-01-21T01:14:59.687Z,1.90
2018-01-21T01:17:27.147Z,1.90
2018-01-21T01:19:55.394Z,2.00
2018-01-21T01:22:22.857Z,1.90
2018-01-21T01:24:50.340Z,2.00
2018-01-21T01:27:18.592Z,2.00
2018-01-21T01:29:46.061Z,2.00
2018-01-21T01:32:19.339Z,2.00
2018-01-21T01:34:46.848Z,2.00
2018-01-21T01:37:15.082Z,2.00
2018-01-21T01:39:42.570Z,2.00
2018-01-21T01:42:10.811Z,2.00
2018-01-21T01:44:38.857Z,2.00
2018-01-21T01:47:06.318Z,2.00
2018-01-21T01:49:33.800Z,2.00
2018-01-21T01:52:01.258Z,2.00
2018-01-21T01:54:28.736Z,1.90
2018-01-21T01:56:57.001Z,1.80
2018-01-21T01:59:24.474Z,1.80
2018-01-21T02:01:51.958Z,1.90
2018-01-21T02:04:20.234Z,1.90
2018-01-21T02:06:48.469Z,1.90
2018-01-21T02:09:15.942Z,1.90
2018-01-21T02:11:43.415Z,1.90
2018-01-21T02:14:11.662Z,1.90
2018-01-21T02:16:39.158Z,1.90
2018-01-21T02:19:07.395Z,1.90
2018-01-21T02:21:34.861Z,1.90
2018-01-21T02:24:02.317Z,2.00
2018-01-21T02:26:29.786Z,2.00
2018-01-21T02:28:57.284Z,2.00
2018-01-21T02:31:24.745Z,2.10
2018-01-21T02:33:52.215Z,2.10
2018-01-21T02:36:19.685Z,2.10
2018-01-21T02:38:47.159Z,2.10
2018-01-21T02:41:14.648Z,2.20
2018-01-21T02:43:42.891Z,2.30
2018-01-21T02:46:10.363Z,2.20
2018-01-21T02:48:37.822Z,2.30
2018-01-21T02:51:05.453Z,2.30
2018-01-21T02:53:33.964Z,2.30
2018-01-21T02:56:01.468Z,2.30
2018-01-21T02:58:28.956Z,2.30
2018-01-21T03:00:56.605Z,2.30
2018-01-21T03:03:24.071Z,2.20
2018-01-21T03:05:51.554Z,2.20
2018-01-21T03:08:19.033Z,2.20
2018-01-21T03:10:46.523Z,2.30
2018-01-21T03:13:13.984Z,2.20
2018-01-21T03:15:41.449Z,2.30
2018-01-21T03:18:08.913Z,2.30
2018-01-21T03:20:36.388Z,2.30
2018-01-21T03:23:03.849Z,2.30
2018-01-21T03:25:31.325Z,2.30
2018-01-21T03:27:58.796Z,2.30
2018-01-21T03:30:26.278Z,2.30
2018-01-21T03:32:54.507Z,2.30
2018-01-21T03:35:21.990Z,2.30
2018-01-21T03:37:50.621Z,2.30
2018-01-21T03:40:18.085Z,2.30
2018-01-21T03:42:45.562Z,2.30
2018-01-21T03:45:13.026Z,2.20
2018-01-21T03:47:40.527Z,2.20
2018-01-21T03:50:08.200Z,2.10
2018-01-21T03:52:35.757Z,2.00
2018-01-21T03:55:03.987Z,2.10
2018-01-21T03:57:31.466Z,2.00
2018-01-21T03:59:58.942Z,2.10
2018-01-21T04:02:27.283Z,2.10
2018-01-21T04:04:54.813Z,2.10
2018-01-21T04:07:22.319Z,2.10
2018-01-21T04:09:49.786Z,2.10
2018-01-21T04:12:18.099Z,2.10
2018-01-21T04:14:45.569Z,2.10
2018-01-21T04:17:13.063Z,2.10
2018-01-21T04:19:40.544Z,2.10
2018-01-21T04:22:08.007Z,2.10
2018-01-21T04:24:36.253Z,2.10
2018-01-21T04:27:03.723Z,2.00
2018-01-21T04:29:31.218Z,2.10
2018-01-21T04:31:58.707Z,2.10
2018-01-21T04:34:26.153Z,2.10
2018-01-21T04:36:53.637Z,2.00
2018-01-21T04:39:21.114Z,2.00
2018-01-21T04:41:49.285Z,1.90
2018-01-21T04:44:16.745Z,1.90
2018-01-21T04:46:44.213Z,1.90
2018-01-21T04:49:11.674Z,1.80
2018-01-21T04:51:39.168Z,1.80
2018-01-21T04:54:06.658Z,1.80
2018-01-21T04:56:34.125Z,1.90
2018-01-21T04:59:01.596Z,1.90
2018-01-21T05:01:29.050Z,1.90
2018-01-21T05:03:56.527Z,2.00
2018-01-21T05:06:24.774Z,2.00
2018-01-21T05:08:52.238Z,2.00
2018-01-21T05:11:19.702Z,2.00
2018-01-21T05:13:47.165Z,1.90
2018-01-21T05:16:14.666Z,1.90
2018-01-21T05:18:42.179Z,1.90
2018-01-21T05:21:09.652Z,1.80
2018-01-21T05:23:37.140Z,1.70
2018-01-21T05:26:05.067Z,1.60
2018-01-21T05:28:32.528Z,1.50
2018-01-21T05:31:00.018Z,1.50
2018-01-21T05:33:28.293Z,1.40
2018-01-21T05:35:56.526Z,1.30
2018-01-21T05:38:23.985Z,1.30
2018-01-21T05:40:51.491Z,1.30
2018-01-21T05:43:19.725Z,1.30
2018-01-21T05:45:47.209Z,1.30
2018-01-21T05:48:15.502Z,1.30
2018-01-21T05:50:43.726Z,1.30
2018-01-21T05:53:11.181Z,1.30
2018-01-21T05:55:38.662Z,1.30
2018-01-21T05:58:06.155Z,1.30
2018-01-21T06:00:34.420Z,1.20
2018-01-21T06:03:02.655Z,1.20
2018-01-21T06:05:30.134Z,1.20
2018-01-21T06:07:57.599Z,1.20
2018-01-21T06:10:25.842Z,1.00
2018-01-21T06:12:53.298Z,1.00
2018-01-21T06:15:20.767Z,1.00
2018-01-21T06:17:48.711Z,1.00
2018-01-21T06:20:16.168Z,0.90
2018-01-21T06:22:43.638Z,0.90
2018-01-21T06:25:11.142Z,0.90
2018-01-21T06:27:39.368Z,0.90
2018-01-21T06:30:06.887Z,0.90
2018-01-21T06:32:34.378Z,0.90
2018-01-21T06:35:01.888Z,0.80
2018-01-21T06:37:29.384Z,0.80
2018-01-21T06:39:56.849Z,0.80
2018-01-21T06:42:24.344Z,0.70
2018-01-21T06:44:51.869Z,0.70
2018-01-21T06:47:19.372Z,0.70
2018-01-21T06:49:46.855Z,0.70
2018-01-21T06:52:15.095Z,0.60
2018-01-21T06:54:42.590Z,0.60
2018-01-21T06:57:10.825Z,0.60
2018-01-21T06:59:38.317Z,0.60
2018-01-21T07:02:06.556Z,0.60
2018-01-21T07:04:34.019Z,0.50
2018-01-21T07:07:01.479Z,0.50
2018-01-21T07:09:28.944Z,0.50
2018-01-21T07:11:56.441Z,0.50
2018-01-21T07:14:24.690Z,0.50
2018-01-21T07:16:52.187Z,0.50
2018-01-21T07:19:19.637Z,0.40
2018-01-21T07:21:47.106Z,0.40
2018-01-21T07:24:14.576Z,0.40
2018-01-21T07:26:42.056Z,0.40
2018-01-21T07:29:09.533Z,0.40
2018-01-21T07:31:37.006Z,0.40
2018-01-21T07:34:04.489Z,0.50
2018-01-21T07:36:31.983Z,0.40
2018-01-21T07:38:59.653Z,0.40
2018-01-21T07:41:27.148Z,0.40
2018-01-21T07:43:54.628Z,0.40
2018-01-21T07:46:22.851Z,0.40
2018-01-21T07:48:50.358Z,0.40
2018-01-21T07:51:18.596Z,0.40
2018-01-21T07:53:46.066Z,0.40
2018-01-21T07:56:13.529Z,0.40
2018-01-21T07:58:41.808Z,0.40
2018-01-21T08:01:09.266Z,0.40
2018-01-21T08:03:36.738Z,0.40
2018-01-21T08:06:05.848Z,0.50
2018-01-21T08:08:33.317Z,0.50
2018-01-21T08:11:00.821Z,0.70
2018-01-21T08:13:28.294Z,1.20
2018-01-21T08:15:55.769Z,1.90
2018-01-21T08:18:24.014Z,2.90
2018-01-21T08:20:51.495Z,2.80
2018-01-21T08:23:18.946Z,3.40
2018-01-21T08:25:46.425Z,4.00
2018-01-21T08:28:14.666Z,4.20
2018-01-21T08:30:42.194Z,4.10
2018-01-21T08:33:09.671Z,3.70
2018-01-21T08:35:42.834Z,3.40
2018-01-21T08:38:16.460Z,3.20
2018-01-21T08:40:49.549Z,3.80
2018-01-21T08:43:17.026Z,4.30
2018-01-21T08:45:44.515Z,4.10
2018-01-21T08:48:12.760Z,3.70
2018-01-21T08:50:40.239Z,3.60
2018-01-21T08:53:07.746Z,3.60
2018-01-21T08:55:35.212Z,3.40
2018-01-21T08:58:02.686Z,3.30
2018-01-21T09:00:30.141Z,3.50
2018-01-21T09:02:57.618Z,4.10
2018-01-21T09:05:25.075Z,4.30
2018-01-21T09:07:53.479Z,4.20
2018-01-21T09:10:21.713Z,3.60
2018-01-21T09:12:49.188Z,3.60
2018-01-21T09:15:16.644Z,3.30
2018-01-21T09:17:44.942Z,3.20
2018-01-21T09:20:12.430Z,3.20
2018-01-21T09:22:39.898Z,3.30
2018-01-21T09:25:07.370Z,3.40
2018-01-21T09:27:34.863Z,3.50
2018-01-21T09:30:02.371Z,3.60
2018-01-21T09:32:29.859Z,3.70
2018-01-21T09:34:57.344Z,3.90
2018-01-21T09:37:24.816Z,4.30
2018-01-21T09:39:53.068Z,4.60
2018-01-21T09:42:20.535Z,4.50
2018-01-21T09:44:48.014Z,5.20
2018-01-21T09:47:16.249Z,6.80
2018-01-21T09:49:43.867Z,6.80
2018-01-21T09:52:11.331Z,7.50
2018-01-21T09:54:38.888Z,8.10
2018-01-21T09:57:06.444Z,8.20
2018-01-21T09:59:33.894Z,8.50
2018-01-21T10:02:01.479Z,9.40
2018-01-21T10:04:28.950Z,10.00
2018-01-21T10:06:56.445Z,10.50
2018-01-21T10:09:23.937Z,10.60
2018-01-21T10:11:51.428Z,10.60
2018-01-21T10:14:18.911Z,10.60
2018-01-21T10:16:46.454Z,10.70
2018-01-21T10:19:13.930Z,11.00
2018-01-21T10:21:41.454Z,11.60
2018-01-21T10:24:08.914Z,12.30
2018-01-21T10:26:36.419Z,12.50
2018-01-21T10:29:04.218Z,12.40
2018-01-21T10:31:31.727Z,12.80
2018-01-21T10:34:00.356Z,11.40
2018-01-21T10:36:28.585Z,10.80
2018-01-21T10:38:56.166Z,10.70
2018-01-21T10:41:24.390Z,10.20
2018-01-21T10:43:53.996Z,9.30
2018-01-21T10:46:21.655Z,8.60
2018-01-21T10:48:49.140Z,8.80
2018-01-21T10:51:16.690Z,9.10
2018-01-21T10:53:45.222Z,8.90
2018-01-21T10:56:13.423Z,8.30
2018-01-21T10:58:42.245Z,7.80
2018-01-21T11:01:09.747Z,7.70
2018-01-21T11:03:37.262Z,7.90
2018-01-21T11:06:05.358Z,7.90
2018-01-21T11:08:32.810Z,7.70
2018-01-21T11:11:00.308Z,7.00
2018-01-21T11:13:28.540Z,6.30
2018-01-21T11:15:56.012Z,6.20
2018-01-21T11:18:23.505Z,6.00
2018-01-21T11:20:51.004Z,6.50
2018-01-21T11:23:18.462Z,6.80
2018-01-21T11:25:45.942Z,7.10
2018-01-21T11:28:13.439Z,7.70
2018-01-21T11:30:41.663Z,9.10
2018-01-21T11:33:09.146Z,9.00
2018-01-21T11:35:36.601Z,9.40
2018-01-21T11:38:04.084Z,8.90
2018-01-21T11:40:32.328Z,8.20
2018-01-21T11:42:59.824Z,8.20
2018-01-21T11:45:28.114Z,7.70
2018-01-21T11:47:55.620Z,7.70
2018-01-21T11:50:23.084Z,7.90
2018-01-21T11:52:51.554Z,8.10
2018-01-21T11:55:19.093Z,8.30
2018-01-21T11:57:47.717Z,8.30
2018-01-21T12:00:15.232Z,8.30
2018-01-21T12:02:42.695Z,8.40
2018-01-21T12:05:10.169Z,8.00
2018-01-21T12:07:37.627Z,7.60
2018-01-21T12:10:05.102Z,7.30
2018-01-21T12:12:32.585Z,7.10
2018-01-21T12:15:00.075Z,6.60
2018-01-21T12:17:27.550Z,6.30
2018-01-21T12:19:55.076Z,6.00
2018-01-21T12:22:23.312Z,5.90
2018-01-21T12:24:50.794Z,5.90
2018-01-21T12:27:18.274Z,5.90
2018-01-21T12:29:46.498Z,5.50
2018-01-21T12:32:13.994Z,5.40
2018-01-21T12:34:41.523Z,5.40
2018-01-21T12:37:09.007Z,5.40
2018-01-21T12:39:36.495Z,5.30
2018-01-21T12:42:03.989Z,5.30
2018-01-21T12:44:31.483Z,5.40
2018-01-21T12:46:58.944Z,5.60
2018-01-21T12:49:26.461Z,5.80
2018-01-21T12:51:53.931Z,5.80
2018-01-21T12:54:21.408Z,5.70
2018-01-21T12:56:49.022Z,5.70
2018-01-21T12:59:16.551Z,5.70
2018-01-21T13:01:44.817Z,5.80
2018-01-21T13:04:12.314Z,5.80
2018-01-21T13:06:39.782Z,5.80
2018-01-21T13:09:07.243Z,5.80
2018-01-21T13:11:34.779Z,5.70
2018-01-21T13:14:03.079Z,5.70
2018-01-21T13:16:30.554Z,5.70
2018-01-21T13:18:58.011Z,5.50
2018-01-21T13:21:25.577Z,5.50
2018-01-21T13:23:53.067Z,5.60
2018-01-21T13:26:20.538Z,5.60
2018-01-21T13:28:48.763Z,5.50
2018-01-21T13:31:16.240Z,5.50
2018-01-21T13:33:43.750Z,5.50
2018-01-21T13:36:11.257Z,5.40
2018-01-21T13:38:38.731Z,5.50
2018-01-21T13:41:06.182Z,5.50
2018-01-21T13:43:33.653Z,5.40
2018-01-21T13:46:01.630Z,5.30
2018-01-21T13:48:29.884Z,5.10
2018-01-21T13:50:57.579Z,5.10
2018-01-21T13:53:25.053Z,5.10
2018-01-21T13:55:52.520Z,5.00
2018-01-21T13:58:19.990Z,4.90
2018-01-21T14:00:47.461Z,4.60
2018-01-21T14:03:14.959Z,4.60
2018-01-21T14:05:43.179Z,4.40
2018-01-21T14:08:10.678Z,4.40
2018-01-21T14:10:38.160Z,4.40
2018-01-21T14:13:06.397Z,4.40
2018-01-21T14:15:33.897Z,4.40
2018-01-21T14:18:02.173Z,4.40
2018-01-21T14:20:30.448Z,4.40
2018-01-21T14:22:58.667Z,4.30
2018-01-21T14:25:26.140Z,4.30
2018-01-21T14:27:53.621Z,4.30
2018-01-21T14:30:21.098Z,4.30
2018-01-21T14:32:49.350Z,4.30
2018-01-21T14:35:16.836Z,4.30
2018-01-21T14:37:45.084Z,4.20
2018-01-21T14:40:12.558Z,4.20
2018-01-21T14:42:40.025Z,4.20
2018-01-21T14:45:08.277Z,4.30
2018-01-21T14:47:35.754Z,4.20
2018-01-21T14:50:04.026Z,4.20
2018-01-21T14:52:31.481Z,4.20
2018-01-21T14:54:58.954Z,4.20
2018-01-21T14:57:26.431Z,4.20
2018-01-21T14:59:53.938Z,4.10
2018-01-21T15:02:21.410Z,4.10
2018-01-21T15:04:48.874Z,4.10
2018-01-21T15:07:16.416Z,4.10
2018-01-21T15:09:43.882Z,4.00
2018-01-21T15:12:12.134Z,3.90
2018-01-21T15:14:39.743Z,3.90
2018-01-21T15:17:07.220Z,3.90
2018-01-21T15:19:34.719Z,3.80
2018-01-21T15:22:02.179Z,3.80
2018-01-21T15:24:29.707Z,3.80
2018-01-21T15:26:57.167Z,3.80
2018-01-21T15:29:24.676Z,3.80
2018-01-21T15:31:52.137Z,3.70
2018-01-21T15:34:19.635Z,3.70
2018-01-21T15:36:47.102Z,3.60
2018-01-21T15:39:14.573Z,3.50
2018-01-21T15:41:42.047Z,3.50
2018-01-21T15:44:09.546Z,3.40
2018-01-21T15:46:37.782Z,3.40
2018-01-21T15:49:05.258Z,3.30
2018-01-21T15:51:32.729Z,3.30
2018-01-21T15:54:00.198Z,3.30
2018-01-21T15:56:28.438Z,3.30
2018-01-21T15:58:55.906Z,3.30
2018-01-21T16:01:23.378Z,3.30
2018-01-21T16:03:50.851Z,3.20
2018-01-21T16:06:19.106Z,3.20
2018-01-21T16:08:46.578Z,3.20
2018-01-21T16:11:14.047Z,3.20
2018-01-21T16:13:42.290Z,3.20
2018-01-21T16:16:09.807Z,3.20
2018-01-21T16:18:37.279Z,3.10
2018-01-21T16:21:04.790Z,3.20
2018-01-21T16:23:33.122Z,3.10
2018-01-21T16:26:00.610Z,3.10
2018-01-21T16:28:28.089Z,3.10
2018-01-21T16:30:55.553Z,3.20
2018-01-21T16:33:23.828Z,3.10
2018-01-21T16:35:52.108Z,3.10
2018-01-21T16:38:32.102Z,3.00
2018-01-21T16:40:59.576Z,3.00
2018-01-21T16:43:27.065Z,3.00
2018-01-21T16:45:54.546Z,3.00
2018-01-21T16:48:22.032Z,2.90
2018-01-21T16:50:49.491Z,2.90
2018-01-21T16:53:16.970Z,2.80
2018-01-21T16:55:44.427Z,2.80
2018-01-21T16:58:11.940Z,2.80
2018-01-21T17:00:40.163Z,2.80
2018-01-21T17:03:08.418Z,2.80
2018-01-21T17:05:35.885Z,2.80
2018-01-21T17:08:03.387Z,2.80
2018-01-21T17:10:30.866Z,2.80
2018-01-21T17:12:59.578Z,2.80
2018-01-21T17:15:27.123Z,2.80
2018-01-21T17:17:55.390Z,2.80
2018-01-21T17:20:23.636Z,2.80
2018-01-21T17:22:51.112Z,2.80
2018-01-21T17:25:18.588Z,2.70
2018-01-21T17:27:46.815Z,2.70
2018-01-21T17:30:14.316Z,2.70
2018-01-21T17:32:41.776Z,2.80
2018-01-21T17:35:10.059Z,2.70
2018-01-21T17:37:37.530Z,2.70
2018-01-21T17:40:04.977Z,2.60
2018-01-21T17:42:32.464Z,2.60
2018-01-21T17:44:59.936Z,2.60
2018-01-21T17:47:27.414Z,2.50
2018-01-21T17:49:54.907Z,2.40
2018-01-21T17:52:23.171Z,2.30
2018-01-21T17:54:50.675Z,2.30
2018-01-21T17:57:18.151Z,2.30
2018-01-21T17:59:45.628Z,2.30
2018-01-21T18:02:13.126Z,2.20
2018-01-21T18:04:41.348Z,2.20
2018-01-21T18:07:08.847Z,2.20
2018-01-21T18:09:37.071Z,2.20
2018-01-21T18:12:04.534Z,2.20
2018-01-21T18:14:32.019Z,2.20
2018-01-21T18:16:59.494Z,2.30
2018-01-21T18:19:27.741Z,2.30
2018-01-21T18:21:55.223Z,2.30
2018-01-21T18:24:22.724Z,2.30
2018-01-21T18:26:50.690Z,2.30
2018-01-21T18:29:18.327Z,2.30
2018-01-21T18:31:46.546Z,2.30
2018-01-21T18:34:14.154Z,2.30
2018-01-21T18:36:41.605Z,2.30
2018-01-21T18:39:09.088Z,2.30
2018-01-21T18:41:37.947Z,2.40
2018-01-21T18:44:05.619Z,2.40
2018-01-21T18:46:33.562Z,2.30
2018-01-21T18:49:01.857Z,2.30
2018-01-21T18:51:29.325Z,2.30
2018-01-21T18:53:56.786Z,2.30
2018-01-21T18:56:24.261Z,2.30
2018-01-21T18:58:52.494Z,2.30
2018-01-21T19:01:19.974Z,2.30
2018-01-21T19:03:47.551Z,2.30
2018-01-21T19:06:15.800Z,2.30
2018-01-21T19:08:43.313Z,2.30
2018-01-21T19:11:11.593Z,2.40
2018-01-21T19:13:39.447Z,2.40
2018-01-21T19:16:06.922Z,2.40
2018-01-21T19:18:34.414Z,2.50
2018-01-21T19:21:01.891Z,2.50
2018-01-21T19:23:29.365Z,2.50
2018-01-21T19:25:57.618Z,2.50
2018-01-21T19:28:25.075Z,2.50
2018-01-21T19:30:52.579Z,2.50
2018-01-21T19:33:20.067Z,2.50
2018-01-21T19:35:47.563Z,2.50
2018-01-21T19:38:20.802Z,2.50
2018-01-21T19:40:49.898Z,2.50
2018-01-21T19:43:18.005Z,2.60
2018-01-21T19:45:46.004Z,2.60
2018-01-21T19:48:13.695Z,2.50
2018-01-21T19:50:41.886Z,2.50
2018-01-21T19:53:09.495Z,2.60
2018-01-21T19:55:37.858Z,2.60
2018-01-21T19:58:06.210Z,2.50
2018-01-21T20:00:33.687Z,2.60
2018-01-21T20:03:01.767Z,2.60
2018-01-21T20:05:29.494Z,2.60
2018-01-21T20:07:57.000Z,2.70
2018-01-21T20:10:24.565Z,2.80
2018-01-21T20:12:52.912Z,2.90
2018-01-21T20:15:21.273Z,2.90
2018-01-21T20:17:48.749Z,3.00
2018-01-21T20:20:16.231Z,3.00
2018-01-21T20:22:43.748Z,3.00
2018-01-21T20:25:12.269Z,3.00
2018-01-21T20:27:39.824Z,3.00
2018-01-21T20:30:07.294Z,3.10
2018-01-21T20:32:34.743Z,3.10
2018-01-21T20:35:02.401Z,3.10
2018-01-21T20:37:30.055Z,3.10
2018-01-21T20:39:57.547Z,3.10
2018-01-21T20:42:25.019Z,3.10
2018-01-21T20:44:52.512Z,3.00
2018-01-21T20:47:20.105Z,3.00
2018-01-21T20:49:47.569Z,3.10
2018-01-21T20:52:20.630Z,3.10
2018-01-21T20:54:48.109Z,3.10
2018-01-21T20:57:15.605Z,3.10
2018-01-21T20:59:43.050Z,3.10
2018-01-21T21:02:10.521Z,3.10
2018-01-21T21:04:38.750Z,2.90
2018-01-21T21:07:06.335Z,2.90
2018-01-21T21:09:33.829Z,2.90
2018-01-21T21:12:02.109Z,2.80
2018-01-21T21:14:30.346Z,2.80
2018-01-21T21:16:57.880Z,2.80
2018-01-21T21:19:25.373Z,2.70
2018-01-21T21:21:52.836Z,2.60
2018-01-21T21:24:20.327Z,2.60
2018-01-21T21:26:47.813Z,2.50
2018-01-21T21:29:15.289Z,2.40
2018-01-21T21:31:42.775Z,2.40
2018-01-21T21:34:10.266Z,2.40
2018-01-21T21:36:37.734Z,2.30
2018-01-21T21:39:05.221Z,2.20
2018-01-21T21:41:32.695Z,2.20
2018-01-21T21:44:00.178Z,2.10
2018-01-21T21:46:28.414Z,2.00
2018-01-21T21:48:55.898Z,2.10
2018-01-21T21:51:23.349Z,2.00
2018-01-21T21:53:50.811Z,2.00
2018-01-21T21:56:18.288Z,2.00
2018-01-21T21:58:46.509Z,1.90
2018-01-21T22:01:13.974Z,1.90
2018-01-21T22:03:41.458Z,1.90
2018-01-21T22:06:08.909Z,2.00
2018-01-21T22:08:36.382Z,2.00
2018-01-21T22:11:03.837Z,2.00
2018-01-21T22:13:31.294Z,2.00
2018-01-21T22:15:58.881Z,2.00
2018-01-21T22:18:27.145Z,2.00
2018-01-21T22:20:54.589Z,2.00
2018-01-21T22:23:22.070Z,2.00
2018-01-21T22:25:50.282Z,2.00
2018-01-21T22:28:17.747Z,2.00
2018-01-21T22:30:45.218Z,2.00
2018-01-21T22:33:12.657Z,2.00
2018-01-21T22:35:40.138Z,2.00
2018-01-21T22:38:07.609Z,2.00
2018-01-21T22:40:35.083Z,2.00
2018-01-21T22:43:02.550Z,2.00
2018-01-21T22:45:30.802Z,2.00
2018-01-21T22:47:58.244Z,2.00
2018-01-21T22:50:25.734Z,2.00
2018-01-21T22:52:53.960Z,2.00
2018-01-21T22:55:21.427Z,2.00
2018-01-21T22:57:49.278Z,2.00
2018-01-21T23:00:16.761Z,2.00
2018-01-21T23:02:44.204Z,2.00
2018-01-21T23:05:11.650Z,2.00
2018-01-21T23:07:39.120Z,2.00
2018-01-21T23:10:06.589Z,2.00
2018-01-21T23:12:34.072Z,1.90
2018-01-21T23:15:01.621Z,1.90
2018-01-21T23:17:29.087Z,2.00
2018-01-21T23:19:56.554Z,2.00
2018-01-21T23:22:24.031Z,2.00
2018-01-21T23:24:52.253Z,2.10
2018-01-21T23:27:19.722Z,2.10
2018-01-21T23:29:47.179Z,2.20
2018-01-21T23:32:14.632Z,2.20
2018-01-21T23:34:42.104Z,2.20
2018-01-21T23:37:09.561Z,2.20
2018-01-21T23:39:37.042Z,2.20
2018-01-21T23:42:04.514Z,2.20
2018-01-21T23:44:32.746Z,2.20
2018-01-21T23:47:00.226Z,2.20
2018-01-21T23:49:27.707Z,2.10
2018-01-21T23:51:55.931Z,2.00
2018-01-21T23:54:23.409Z,2.00
2018-01-21T23:56:50.876Z,2.00
2018-01-21T23:59:18.337Z,1.90
